< < Back
Terminal Aerodrome Forecast


Current Version              Previous Versions:   1  2  3  4  5  6  7  8  9  

Terminal Aerodrome Forecast

892
FTUS42 KILM 220500 CCA
TAFILM
TAF COR
KILM 220554Z 2206/2306 03008KT 5SM -RA BR BKN008 OVC012
      TEMPO 2206/2208 3SM RA BR OVC004
     FM221700 36007KT P6SM OVC006
     FM230000 35004KT 2SM BR OVC004=

Latest METAR

564
SAUS70 KWBC 221200 RRF
MTRILM
METAR KILM 221153Z 36007KT 2SM BR OVC003 07/07 A3006 RMK AO2 SLP177
60016 70022 T00720067 10072 20067 55003


USA.gov is the U.S. government's official web portal to all federal, state and local government web resources and services.